sensor_id;sensor_type;location;lat;lon;timestamp;pressure;altitude;pressure_sealevel;temperature;humidity
52105;BME280;38103;42.776;23.112;2023-11-19T00:00:49;93832.38;;;0.44;100.00
52105;BME280;38103;42.776;23.112;2023-11-19T00:03:16;93857.66;;;0.59;100.00
52105;BME280;38103;42.776;23.112;2023-11-19T00:05:41;93878.03;;;0.70;100.00
52105;BME280;38103;42.776;23.112;2023-11-19T00:08:07;93899.25;;;0.67;100.00
52105;BME280;38103;42.776;23.112;2023-11-19T00:10:33;93895.97;;;0.65;100.00
52105;BME280;38103;42.776;23.112;2023-11-19T00:12:59;93908.00;;;0.66;100.00
52105;BME280;38103;42.776;23.112;2023-11-19T00:15:24;93906.03;;;0.68;100.00
52105;BME280;38103;42.776;23.112;2023-11-19T00:17:50;93905.69;;;0.71;100.00
52105;BME280;38103;42.776;23.112;2023-11-19T00:20:19;93890.53;;;0.75;100.00
52105;BME280;38103;42.776;23.112;2023-11-19T00:22:47;93898.88;;;0.70;100.00
52105;BME280;38103;42.776;23.112;2023-11-19T00:25:19;93894.13;;;0.74;100.00
52105;BME280;38103;42.776;23.112;2023-11-19T00:27:44;93899.16;;;0.75;100.00
52105;BME280;38103;42.776;23.112;2023-11-19T00:30:10;93896.22;;;0.78;100.00
52105;BME280;38103;42.776;23.112;2023-11-19T00:32:36;93912.78;;;0.77;100.00
52105;BME280;38103;42.776;23.112;2023-11-19T00:35:04;93855.78;;;0.44;100.00
52105;BME280;38103;42.776;23.112;2023-11-19T00:37:29;93921.75;;;0.75;100.00
52105;BME280;38103;42.776;23.112;2023-11-19T00:39:55;93901.75;;;0.75;100.00
52105;BME280;38103;42.776;23.112;2023-11-19T00:42:22;93915.78;;;0.74;100.00
52105;BME280;38103;42.776;23.112;2023-11-19T00:44:47;93900.44;;;0.80;100.00
52105;BME280;38103;42.776;23.112;2023-11-19T00:47:12;93850.72;;;0.27;100.00
52105;BME280;38103;42.776;23.112;2023-11-19T00:49:38;93905.41;;;0.66;100.00
52105;BME280;38103;42.776;23.112;2023-11-19T00:52:03;93917.91;;;0.71;100.00
52105;BME280;38103;42.776;23.112;2023-11-19T00:54:29;93924.88;;;0.70;100.00
52105;BME280;38103;42.776;23.112;2023-11-19T00:56:55;93921.25;;;0.80;100.00
52105;BME280;38103;42.776;23.112;2023-11-19T00:59:20;93917.38;;;0.75;100.00
52105;BME280;38103;42.776;23.112;2023-11-19T01:01:46;93923.50;;;0.83;100.00
52105;BME280;38103;42.776;23.112;2023-11-19T01:04:16;93920.25;;;0.81;100.00
52105;BME280;38103;42.776;23.112;2023-11-19T01:06:42;93922.72;;;0.82;100.00
52105;BME280;38103;42.776;23.112;2023-11-19T01:09:08;93935.53;;;0.84;100.00
52105;BME280;38103;42.776;23.112;2023-11-19T01:11:34;93917.59;;;0.89;100.00
52105;BME280;38103;42.776;23.112;2023-11-19T01:14:00;93926.38;;;0.88;100.00
52105;BME280;38103;42.776;23.112;2023-11-19T01:16:26;93901.56;;;0.62;100.00
52105;BME280;38103;42.776;23.112;2023-11-19T01:18:51;93929.66;;;0.90;100.00
52105;BME280;38103;42.776;23.112;2023-11-19T01:21:17;93916.34;;;0.85;100.00
52105;BME280;38103;42.776;23.112;2023-11-19T01:23:43;93937.16;;;0.85;100.00
52105;BME280;38103;42.776;23.112;2023-11-19T01:26:09;93920.50;;;0.71;100.00
52105;BME280;38103;42.776;23.112;2023-11-19T01:28:40;93866.63;;;0.32;100.00
52105;BME280;38103;42.776;23.112;2023-11-19T01:31:08;93927.34;;;0.72;100.00
52105;BME280;38103;42.776;23.112;2023-11-19T01:33:35;93918.09;;;0.69;100.00
52105;BME280;38103;42.776;23.112;2023-11-19T01:36:01;93905.13;;;0.61;100.00
52105;BME280;38103;42.776;23.112;2023-11-19T01:38:26;93900.59;;;0.54;100.00
52105;BME280;38103;42.776;23.112;2023-11-19T01:40:56;93911.38;;;0.51;100.00
52105;BME280;38103;42.776;23.112;2023-11-19T01:43:35;93907.78;;;0.52;100.00
52105;BME280;38103;42.776;23.112;2023-11-19T01:46:01;93915.63;;;0.44;100.00
52105;BME280;38103;42.776;23.112;2023-11-19T01:48:29;93924.75;;;0.40;100.00
52105;BME280;38103;42.776;23.112;2023-11-19T01:50:55;93920.38;;;0.40;100.00
52105;BME280;38103;42.776;23.112;2023-11-19T01:53:21;93937.94;;;0.38;100.00
52105;BME280;38103;42.776;23.112;2023-11-19T01:55:47;93925.56;;;0.40;100.00
52105;BME280;38103;42.776;23.112;2023-11-19T01:58:13;93870.53;;;0.05;100.00
52105;BME280;38103;42.776;23.112;2023-11-19T02:00:39;93918.50;;;0.49;100.00
52105;BME280;38103;42.776;23.112;2023-11-19T02:03:06;93872.38;;;0.19;100.00
52105;BME280;38103;42.776;23.112;2023-11-19T02:05:34;93907.19;;;0.42;100.00
52105;BME280;38103;42.776;23.112;2023-11-19T02:08:00;93909.50;;;0.37;100.00
52105;BME280;38103;42.776;23.112;2023-11-19T02:10:26;93919.91;;;0.37;100.00
52105;BME280;38103;42.776;23.112;2023-11-19T02:12:51;93926.72;;;0.38;100.00
52105;BME280;38103;42.776;23.112;2023-11-19T02:15:16;93932.91;;;0.37;100.00
52105;BME280;38103;42.776;23.112;2023-11-19T02:17:44;93930.59;;;0.42;100.00
52105;BME280;38103;42.776;23.112;2023-11-19T02:20:10;93934.88;;;0.35;100.00
52105;BME280;38103;42.776;23.112;2023-11-19T02:22:40;93935.47;;;0.45;100.00
52105;BME280;38103;42.776;23.112;2023-11-19T02:25:07;93936.78;;;0.41;100.00
52105;BME280;38103;42.776;23.112;2023-11-19T02:27:55;93932.34;;;0.50;100.00
52105;BME280;38103;42.776;23.112;2023-11-19T02:30:22;93919.22;;;0.43;100.00
52105;BME280;38103;42.776;23.112;2023-11-19T02:32:58;93900.75;;;0.29;100.00
52105;BME280;38103;42.776;23.112;2023-11-19T02:35:27;93924.41;;;0.43;100.00
52105;BME280;38103;42.776;23.112;2023-11-19T02:37:54;93929.97;;;0.40;100.00
52105;BME280;38103;42.776;23.112;2023-11-19T02:40:19;93939.09;;;0.36;100.00
52105;BME280;38103;42.776;23.112;2023-11-19T02:42:45;93947.19;;;0.41;100.00
52105;BME280;38103;42.776;23.112;2023-11-19T02:45:10;93938.09;;;0.37;100.00
52105;BME280;38103;42.776;23.112;2023-11-19T02:47:39;93936.44;;;0.44;100.00
52105;BME280;38103;42.776;23.112;2023-11-19T02:50:05;93928.81;;;0.42;100.00
52105;BME280;38103;42.776;23.112;2023-11-19T02:52:38;93932.38;;;0.41;100.00
52105;BME280;38103;42.776;23.112;2023-11-19T02:55:04;93892.50;;;0.26;100.00
52105;BME280;38103;42.776;23.112;2023-11-19T02:57:34;93938.69;;;0.47;100.00
52105;BME280;38103;42.776;23.112;2023-11-19T03:00:00;93934.13;;;0.49;100.00
52105;BME280;38103;42.776;23.112;2023-11-19T03:02:25;93914.34;;;0.40;100.00
52105;BME280;38103;42.776;23.112;2023-11-19T03:04:59;93941.00;;;0.42;100.00
52105;BME280;38103;42.776;23.112;2023-11-19T03:07:24;93944.91;;;0.46;100.00
52105;BME280;38103;42.776;23.112;2023-11-19T03:09:49;93943.25;;;0.45;100.00
52105;BME280;38103;42.776;23.112;2023-11-19T03:12:15;93931.72;;;0.48;100.00
52105;BME280;38103;42.776;23.112;2023-11-19T03:14:40;93928.09;;;0.25;100.00
52105;BME280;38103;42.776;23.112;2023-11-19T03:17:05;93940.03;;;0.43;100.00
52105;BME280;38103;42.776;23.112;2023-11-19T03:19:31;93937.47;;;0.35;100.00
52105;BME280;38103;42.776;23.112;2023-11-19T03:21:56;93923.84;;;0.32;100.00
52105;BME280;38103;42.776;23.112;2023-11-19T03:24:22;93916.22;;;0.31;100.00
52105;BME280;38103;42.776;23.112;2023-11-19T03:26:50;93922.72;;;0.27;100.00
52105;BME280;38103;42.776;23.112;2023-11-19T03:29:15;93917.38;;;0.28;100.00
52105;BME280;38103;42.776;23.112;2023-11-19T03:31:44;93922.19;;;0.31;100.00
52105;BME280;38103;42.776;23.112;2023-11-19T03:34:12;93930.84;;;0.24;100.00
52105;BME280;38103;42.776;23.112;2023-11-19T03:36:37;93932.59;;;0.31;100.00
52105;BME280;38103;42.776;23.112;2023-11-19T03:39:02;93931.63;;;0.32;100.00
52105;BME280;38103;42.776;23.112;2023-11-19T03:41:28;93953.06;;;0.35;100.00
52105;BME280;38103;42.776;23.112;2023-11-19T03:43:53;93958.88;;;0.45;100.00
52105;BME280;38103;42.776;23.112;2023-11-19T03:46:19;93968.47;;;0.44;100.00
52105;BME280;38103;42.776;23.112;2023-11-19T03:48:49;93979.00;;;0.51;100.00
52105;BME280;38103;42.776;23.112;2023-11-19T03:51:14;93973.44;;;0.54;100.00
52105;BME280;38103;42.776;23.112;2023-11-19T03:53:44;93973.91;;;0.58;100.00
52105;BME280;38103;42.776;23.112;2023-11-19T03:56:10;93974.72;;;0.59;100.00
52105;BME280;38103;42.776;23.112;2023-11-19T03:58:36;93979.31;;;0.57;100.00
52105;BME280;38103;42.776;23.112;2023-11-19T04:01:01;93990.34;;;0.59;100.00
52105;BME280;38103;42.776;23.112;2023-11-19T04:03:27;93947.28;;;0.24;100.00
52105;BME280;38103;42.776;23.112;2023-11-19T04:05:53;93989.06;;;0.54;100.00
52105;BME280;38103;42.776;23.112;2023-11-19T04:08:19;93990.34;;;0.59;100.00
52105;BME280;38103;42.776;23.112;2023-11-19T04:10:44;93985.47;;;0.55;100.00
52105;BME280;38103;42.776;23.112;2023-11-19T04:13:10;93962.03;;;0.32;100.00
52105;BME280;38103;42.776;23.112;2023-11-19T04:15:35;93998.31;;;0.57;100.00
52105;BME280;38103;42.776;23.112;2023-11-19T04:18:01;93945.44;;;0.33;100.00
52105;BME280;38103;42.776;23.112;2023-11-19T04:20:26;94002.03;;;0.63;100.00
52105;BME280;38103;42.776;23.112;2023-11-19T04:22:52;93993.59;;;0.61;100.00
52105;BME280;38103;42.776;23.112;2023-11-19T04:25:19;93989.41;;;0.51;100.00
52105;BME280;38103;42.776;23.112;2023-11-19T04:27:44;94010.47;;;0.65;100.00
52105;BME280;38103;42.776;23.112;2023-11-19T04:30:10;94023.78;;;0.70;100.00
52105;BME280;38103;42.776;23.112;2023-11-19T04:32:36;94023.44;;;0.73;100.00
52105;BME280;38103;42.776;23.112;2023-11-19T04:35:02;94022.16;;;0.69;100.00
52105;BME280;38103;42.776;23.112;2023-11-19T04:37:28;94025.06;;;0.74;100.00
52105;BME280;38103;42.776;23.112;2023-11-19T04:39:54;94011.13;;;0.67;100.00
52105;BME280;38103;42.776;23.112;2023-11-19T04:42:22;93969.28;;;0.45;100.00
52105;BME280;38103;42.776;23.112;2023-11-19T04:44:47;94010.41;;;0.73;100.00
52105;BME280;38103;42.776;23.112;2023-11-19T04:47:12;94017.56;;;0.80;100.00
52105;BME280;38103;42.776;23.112;2023-11-19T04:49:41;94019.03;;;0.74;100.00
52105;BME280;38103;42.776;23.112;2023-11-19T04:52:10;94016.25;;;0.75;100.00
52105;BME280;38103;42.776;23.112;2023-11-19T04:54:41;94011.97;;;0.83;100.00
52105;BME280;38103;42.776;23.112;2023-11-19T04:57:06;94007.59;;;0.83;100.00
52105;BME280;38103;42.776;23.112;2023-11-19T04:59:34;94019.50;;;0.77;100.00
52105;BME280;38103;42.776;23.112;2023-11-19T05:01:59;94013.84;;;0.74;100.00
52105;BME280;38103;42.776;23.112;2023-11-19T05:04:24;94017.63;;;0.63;100.00
52105;BME280;38103;42.776;23.112;2023-11-19T05:06:50;94025.13;;;0.58;100.00
52105;BME280;38103;42.776;23.112;2023-11-19T05:09:15;94013.16;;;0.48;100.00
52105;BME280;38103;42.776;23.112;2023-11-19T05:11:40;94012.66;;;0.53;100.00
52105;BME280;38103;42.776;23.112;2023-11-19T05:14:06;94003.38;;;0.50;100.00
52105;BME280;38103;42.776;23.112;2023-11-19T05:16:32;94011.22;;;0.42;100.00
52105;BME280;38103;42.776;23.112;2023-11-19T05:18:57;94001.03;;;0.32;100.00
52105;BME280;38103;42.776;23.112;2023-11-19T05:21:22;93973.59;;;0.21;100.00
52105;BME280;38103;42.776;23.112;2023-11-19T05:23:49;94010.63;;;0.31;100.00
52105;BME280;38103;42.776;23.112;2023-11-19T05:26:21;94010.63;;;0.31;100.00
52105;BME280;38103;42.776;23.112;2023-11-19T05:28:47;94016.19;;;0.28;100.00
52105;BME280;38103;42.776;23.112;2023-11-19T05:31:13;94015.50;;;0.35;100.00
52105;BME280;38103;42.776;23.112;2023-11-19T05:33:39;94018.22;;;0.41;100.00
52105;BME280;38103;42.776;23.112;2023-11-19T05:36:05;94027.13;;;0.47;100.00
52105;BME280;38103;42.776;23.112;2023-11-19T05:38:30;94035.94;;;0.46;100.00
52105;BME280;38103;42.776;23.112;2023-11-19T05:40:56;94036.56;;;0.48;100.00
52105;BME280;38103;42.776;23.112;2023-11-19T05:43:22;94036.41;;;0.50;100.00
52105;BME280;38103;42.776;23.112;2023-11-19T05:45:47;94050.53;;;0.47;100.00
52105;BME280;38103;42.776;23.112;2023-11-19T05:48:12;94049.41;;;0.50;100.00
52105;BME280;38103;42.776;23.112;2023-11-19T05:50:39;94050.88;;;0.44;100.00
52105;BME280;38103;42.776;23.112;2023-11-19T05:53:04;94047.94;;;0.47;100.00
52105;BME280;38103;42.776;23.112;2023-11-19T05:55:36;94049.72;;;0.47;100.00
52105;BME280;38103;42.776;23.112;2023-11-19T05:58:10;94062.78;;;0.38;100.00
52105;BME280;38103;42.776;23.112;2023-11-19T06:00:37;94070.41;;;0.40;100.00
52105;BME280;38103;42.776;23.112;2023-11-19T06:03:02;94075.13;;;0.36;100.00
52105;BME280;38103;42.776;23.112;2023-11-19T06:05:28;94073.19;;;0.38;100.00
52105;BME280;38103;42.776;23.112;2023-11-19T06:07:53;94063.56;;;0.39;100.00
52105;BME280;38103;42.776;23.112;2023-11-19T06:10:18;94059.03;;;0.41;100.00
52105;BME280;38103;42.776;23.112;2023-11-19T06:12:45;94053.16;;;0.47;100.00
52105;BME280;38103;42.776;23.112;2023-11-19T06:15:11;94060.50;;;0.43;100.00
52105;BME280;38103;42.776;23.112;2023-11-19T06:17:36;94064.19;;;0.49;100.00
52105;BME280;38103;42.776;23.112;2023-11-19T06:20:04;94041.50;;;0.35;100.00
52105;BME280;38103;42.776;23.112;2023-11-19T06:22:30;94050.84;;;0.52;100.00
52105;BME280;38103;42.776;23.112;2023-11-19T06:24:55;94071.69;;;0.44;100.00
52105;BME280;38103;42.776;23.112;2023-11-19T06:27:21;94066.16;;;0.47;100.00
52105;BME280;38103;42.776;23.112;2023-11-19T06:29:47;94015.22;;;0.21;100.00
52105;BME280;38103;42.776;23.112;2023-11-19T06:32:13;94057.06;;;0.51;100.00
52105;BME280;38103;42.776;23.112;2023-11-19T06:34:38;94075.09;;;0.53;100.00
52105;BME280;38103;42.776;23.112;2023-11-19T06:37:04;94078.19;;;0.48;100.00
52105;BME280;38103;42.776;23.112;2023-11-19T06:39:29;94066.47;;;0.44;100.00
52105;BME280;38103;42.776;23.112;2023-11-19T06:41:55;94077.25;;;0.41;100.00
52105;BME280;38103;42.776;23.112;2023-11-19T06:44:20;94089.25;;;0.42;100.00
52105;BME280;38103;42.776;23.112;2023-11-19T06:46:45;94073.69;;;0.33;100.00
52105;BME280;38103;42.776;23.112;2023-11-19T06:49:11;94052.63;;;0.12;100.00
52105;BME280;38103;42.776;23.112;2023-11-19T06:51:41;94066.56;;;0.27;100.00
52105;BME280;38103;42.776;23.112;2023-11-19T06:54:07;94079.75;;;0.26;100.00
52105;BME280;38103;42.776;23.112;2023-11-19T06:56:32;94092.22;;;0.30;100.00
52105;BME280;38103;42.776;23.112;2023-11-19T06:58:57;94074.66;;;0.32;100.00
52105;BME280;38103;42.776;23.112;2023-11-19T07:01:23;94084.66;;;0.52;100.00
52105;BME280;38103;42.776;23.112;2023-11-19T07:03:49;94084.00;;;0.59;100.00
52105;BME280;38103;42.776;23.112;2023-11-19T07:06:14;94097.00;;;0.67;100.00
52105;BME280;38103;42.776;23.112;2023-11-19T07:08:41;94093.97;;;0.87;100.00
52105;BME280;38103;42.776;23.112;2023-11-19T07:11:07;94082.44;;;1.13;100.00
52105;BME280;38103;42.776;23.112;2023-11-19T07:13:35;94085.16;;;1.43;100.00
52105;BME280;38103;42.776;23.112;2023-11-19T07:16:00;94086.06;;;1.74;100.00
52105;BME280;38103;42.776;23.112;2023-11-19T07:18:26;94095.19;;;2.09;100.00
52105;BME280;38103;42.776;23.112;2023-11-19T07:20:51;94093.34;;;2.48;100.00
52105;BME280;38103;42.776;23.112;2023-11-19T07:23:17;94098.81;;;2.84;100.00
52105;BME280;38103;42.776;23.112;2023-11-19T07:25:43;94107.94;;;3.10;100.00
52105;BME280;38103;42.776;23.112;2023-11-19T07:28:12;94112.16;;;3.26;100.00
52105;BME280;38103;42.776;23.112;2023-11-19T07:30:37;94115.78;;;3.10;100.00
52105;BME280;38103;42.776;23.112;2023-11-19T07:33:03;94104.41;;;2.81;100.00
52105;BME280;38103;42.776;23.112;2023-11-19T07:35:29;94115.56;;;2.74;100.00
52105;BME280;38103;42.776;23.112;2023-11-19T07:37:56;94103.25;;;2.53;100.00
52105;BME280;38103;42.776;23.112;2023-11-19T07:40:23;94109.09;;;2.40;100.00
52105;BME280;38103;42.776;23.112;2023-11-19T07:42:48;94101.00;;;2.34;100.00
52105;BME280;38103;42.776;23.112;2023-11-19T07:45:13;94087.69;;;2.29;100.00
52105;BME280;38103;42.776;23.112;2023-11-19T07:47:39;94093.06;;;2.12;100.00
52105;BME280;38103;42.776;23.112;2023-11-19T07:50:05;94105.59;;;1.94;100.00
52105;BME280;38103;42.776;23.112;2023-11-19T07:52:30;94087.22;;;1.72;100.00
52105;BME280;38103;42.776;23.112;2023-11-19T07:54:56;94096.41;;;1.67;100.00
52105;BME280;38103;42.776;23.112;2023-11-19T07:57:21;94098.72;;;1.62;100.00
52105;BME280;38103;42.776;23.112;2023-11-19T07:59:49;94109.66;;;1.34;100.00
52105;BME280;38103;42.776;23.112;2023-11-19T08:02:14;94116.19;;;1.30;100.00
52105;BME280;38103;42.776;23.112;2023-11-19T08:04:39;94118.19;;;1.19;100.00
52105;BME280;38103;42.776;23.112;2023-11-19T08:07:10;94106.00;;;1.20;100.00
52105;BME280;38103;42.776;23.112;2023-11-19T08:09:35;94129.13;;;1.15;100.00
52105;BME280;38103;42.776;23.112;2023-11-19T08:12:01;94123.31;;;1.04;100.00
52105;BME280;38103;42.776;23.112;2023-11-19T08:14:26;94123.16;;;1.06;100.00
52105;BME280;38103;42.776;23.112;2023-11-19T08:16:51;94126.34;;;1.16;100.00
52105;BME280;38103;42.776;23.112;2023-11-19T08:19:17;94119.25;;;1.10;100.00
52105;BME280;38103;42.776;23.112;2023-11-19T08:21:42;94126.56;;;1.06;100.00
52105;BME280;38103;42.776;23.112;2023-11-19T08:24:07;94127.38;;;1.07;100.00
52105;BME280;38103;42.776;23.112;2023-11-19T08:26:33;94125.75;;;1.06;100.00
52105;BME280;38103;42.776;23.112;2023-11-19T08:28:58;94134.91;;;1.02;100.00
52105;BME280;38103;42.776;23.112;2023-11-19T08:31:24;94139.13;;;1.03;100.00
52105;BME280;38103;42.776;23.112;2023-11-19T08:33:50;94151.75;;;1.14;100.00
52105;BME280;38103;42.776;23.112;2023-11-19T08:36:16;94148.41;;;1.05;100.00
52105;BME280;38103;42.776;23.112;2023-11-19T08:38:42;94147.88;;;1.10;100.00
52105;BME280;38103;42.776;23.112;2023-11-19T08:41:07;94146.84;;;1.19;100.00
52105;BME280;38103;42.776;23.112;2023-11-19T08:43:32;94143.28;;;1.20;100.00
52105;BME280;38103;42.776;23.112;2023-11-19T08:45:58;94139.81;;;1.28;100.00
52105;BME280;38103;42.776;23.112;2023-11-19T08:48:23;94129.22;;;1.30;100.00
52105;BME280;38103;42.776;23.112;2023-11-19T08:50:49;94153.16;;;1.57;100.00
52105;BME280;38103;42.776;23.112;2023-11-19T08:53:15;94165.44;;;1.72;100.00
52105;BME280;38103;42.776;23.112;2023-11-19T08:55:40;94154.88;;;1.88;100.00
52105;BME280;38103;42.776;23.112;2023-11-19T08:58:06;94160.75;;;2.29;100.00
52105;BME280;38103;42.776;23.112;2023-11-19T09:00:32;94164.91;;;2.69;100.00
52105;BME280;38103;42.776;23.112;2023-11-19T09:02:58;94166.34;;;2.87;100.00
52105;BME280;38103;42.776;23.112;2023-11-19T09:05:23;94167.69;;;2.98;100.00
52105;BME280;38103;42.776;23.112;2023-11-19T09:07:48;94167.41;;;3.08;100.00
52105;BME280;38103;42.776;23.112;2023-11-19T09:10:15;94131.41;;;2.88;100.00
52105;BME280;38103;42.776;23.112;2023-11-19T09:12:41;94164.44;;;3.11;100.00
52105;BME280;38103;42.776;23.112;2023-11-19T09:15:06;94165.63;;;2.93;100.00
52105;BME280;38103;42.776;23.112;2023-11-19T09:17:32;94166.69;;;2.84;100.00
52105;BME280;38103;42.776;23.112;2023-11-19T09:19:57;94178.22;;;2.74;100.00
52105;BME280;38103;42.776;23.112;2023-11-19T09:22:23;94176.25;;;2.61;100.00
52105;BME280;38103;42.776;23.112;2023-11-19T09:24:48;94178.31;;;2.51;100.00
52105;BME280;38103;42.776;23.112;2023-11-19T09:27:14;94171.00;;;2.46;100.00
52105;BME280;38103;42.776;23.112;2023-11-19T09:29:39;94174.88;;;2.50;100.00
52105;BME280;38103;42.776;23.112;2023-11-19T09:32:05;94157.25;;;2.52;100.00
52105;BME280;38103;42.776;23.112;2023-11-19T09:34:31;94142.22;;;2.54;100.00
52105;BME280;38103;42.776;23.112;2023-11-19T09:36:57;94133.38;;;2.55;100.00
52105;BME280;38103;42.776;23.112;2023-11-19T09:39:22;94133.56;;;2.69;100.00
52105;BME280;38103;42.776;23.112;2023-11-19T09:41:47;94129.25;;;2.76;100.00
52105;BME280;38103;42.776;23.112;2023-11-19T09:44:13;94110.78;;;2.93;100.00
52105;BME280;38103;42.776;23.112;2023-11-19T09:46:41;94117.41;;;3.11;100.00
52105;BME280;38103;42.776;23.112;2023-11-19T09:49:08;94090.94;;;3.14;100.00
52105;BME280;38103;42.776;23.112;2023-11-19T09:51:35;94117.06;;;3.36;100.00
52105;BME280;38103;42.776;23.112;2023-11-19T09:54:00;94120.69;;;3.35;100.00
52105;BME280;38103;42.776;23.112;2023-11-19T09:56:31;94119.78;;;3.28;100.00
52105;BME280;38103;42.776;23.112;2023-11-19T09:58:59;94113.63;;;3.13;100.00
52105;BME280;38103;42.776;23.112;2023-11-19T10:01:24;94104.19;;;2.97;100.00
52105;BME280;38103;42.776;23.112;2023-11-19T10:03:51;94102.69;;;2.88;100.00
52105;BME280;38103;42.776;23.112;2023-11-19T10:06:20;94098.94;;;2.75;100.00
52105;BME280;38103;42.776;23.112;2023-11-19T10:08:48;94098.38;;;2.80;100.00
52105;BME280;38103;42.776;23.112;2023-11-19T10:11:13;94096.94;;;2.77;100.00
52105;BME280;38103;42.776;23.112;2023-11-19T10:13:40;94105.88;;;2.68;100.00
52105;BME280;38103;42.776;23.112;2023-11-19T10:16:12;94118.66;;;2.63;100.00
52105;BME280;38103;42.776;23.112;2023-11-19T10:18:46;94120.19;;;2.57;100.00
52105;BME280;38103;42.776;23.112;2023-11-19T10:21:12;94118.00;;;2.45;100.00
52105;BME280;38103;42.776;23.112;2023-11-19T10:23:54;94113.06;;;2.36;100.00
52105;BME280;38103;42.776;23.112;2023-11-19T10:26:22;94104.31;;;2.28;100.00
52105;BME280;38103;42.776;23.112;2023-11-19T10:28:48;94060.31;;;1.95;100.00
52105;BME280;38103;42.776;23.112;2023-11-19T10:31:14;94085.31;;;2.04;100.00
52105;BME280;38103;42.776;23.112;2023-11-19T10:33:41;94095.59;;;2.21;100.00
52105;BME280;38103;42.776;23.112;2023-11-19T10:36:07;94096.28;;;2.15;100.00
52105;BME280;38103;42.776;23.112;2023-11-19T10:38:33;94097.94;;;2.16;100.00
52105;BME280;38103;42.776;23.112;2023-11-19T10:40:58;94097.94;;;2.16;100.00
52105;BME280;38103;42.776;23.112;2023-11-19T10:43:24;94103.06;;;2.24;100.00
52105;BME280;38103;42.776;23.112;2023-11-19T10:45:51;94097.94;;;2.16;100.00
52105;BME280;38103;42.776;23.112;2023-11-19T10:48:16;94100.19;;;2.19;100.00
52105;BME280;38103;42.776;23.112;2023-11-19T10:50:43;94109.25;;;2.23;100.00
52105;BME280;38103;42.776;23.112;2023-11-19T10:53:11;94097.94;;;2.16;100.00
52105;BME280;38103;42.776;23.112;2023-11-19T10:55:39;94103.16;;;2.16;100.00
52105;BME280;38103;42.776;23.112;2023-11-19T10:58:06;94096.56;;;2.05;100.00
52105;BME280;38103;42.776;23.112;2023-11-19T11:00:38;94080.72;;;2.06;100.00
52105;BME280;38103;42.776;23.112;2023-11-19T11:03:10;94070.69;;;2.18;100.00
52105;BME280;38103;42.776;23.112;2023-11-19T11:05:37;94069.94;;;2.25;100.00
52105;BME280;38103;42.776;23.112;2023-11-19T11:08:04;94065.09;;;2.37;100.00
52105;BME280;38103;42.776;23.112;2023-11-19T11:10:32;94056.19;;;2.46;100.00
52105;BME280;38103;42.776;23.112;2023-11-19T11:13:03;94054.94;;;2.42;100.00
52105;BME280;38103;42.776;23.112;2023-11-19T11:15:30;94060.69;;;2.52;100.00
52105;BME280;38103;42.776;23.112;2023-11-19T11:18:00;94047.91;;;2.58;100.00
52105;BME280;38103;42.776;23.112;2023-11-19T11:20:32;94048.19;;;2.63;100.00
52105;BME280;38103;42.776;23.112;2023-11-19T11:33:39;94038.88;;;4.14;91.01
52105;BME280;38103;42.776;23.112;2023-11-19T11:36:19;94026.41;;;4.23;90.33
52105;BME280;38103;42.776;23.112;2023-11-19T11:38:48;94022.16;;;4.15;89.26
52105;BME280;38103;42.776;23.112;2023-11-19T11:41:18;94020.97;;;4.18;90.35
52105;BME280;38103;42.776;23.112;2023-11-19T11:43:51;94021.03;;;3.96;88.82
52105;BME280;38103;42.776;23.112;2023-11-19T11:49:08;93977.91;;;3.56;86.21
52105;BME280;38103;42.776;23.112;2023-11-19T11:54:09;94027.13;;;3.74;86.88
52105;BME280;38103;42.776;23.112;2023-11-19T11:56:37;94028.13;;;3.73;86.81
52105;BME280;38103;42.776;23.112;2023-11-19T11:59:03;94022.31;;;3.78;85.78
52105;BME280;38103;42.776;23.112;2023-11-19T12:01:29;94020.56;;;3.85;87.60
52105;BME280;38103;42.776;23.112;2023-11-19T12:03:55;94019.41;;;3.95;83.61
52105;BME280;38103;42.776;23.112;2023-11-19T12:06:23;94016.03;;;4.01;83.77
52105;BME280;38103;42.776;23.112;2023-11-19T12:08:48;93999.78;;;4.12;84.14
52105;BME280;38103;42.776;23.112;2023-11-19T12:11:16;93999.41;;;4.16;82.73
52105;BME280;38103;42.776;23.112;2023-11-19T12:13:55;93975.56;;;3.97;82.50
52105;BME280;38103;42.776;23.112;2023-11-19T12:16:27;94000.19;;;4.09;82.87
52105;BME280;38103;42.776;23.112;2023-11-19T12:18:54;93997.59;;;4.09;81.43
52105;BME280;38103;42.776;23.112;2023-11-19T12:21:30;93989.56;;;4.18;81.86
52105;BME280;38103;42.776;23.112;2023-11-19T12:23:58;93991.75;;;4.14;81.04
52105;BME280;38103;42.776;23.112;2023-11-19T12:26:37;93986.03;;;3.97;82.18
52105;BME280;38103;42.776;23.112;2023-11-19T12:29:03;93986.81;;;3.97;81.65
52105;BME280;38103;42.776;23.112;2023-11-19T12:31:29;93983.03;;;4.00;81.54
52105;BME280;38103;42.776;23.112;2023-11-19T12:33:55;93984.50;;;4.09;80.68
52105;BME280;38103;42.776;23.112;2023-11-19T12:36:21;93974.44;;;4.13;81.87
52105;BME280;38103;42.776;23.112;2023-11-19T12:38:46;93975.03;;;4.15;80.70
52105;BME280;38103;42.776;23.112;2023-11-19T12:41:11;93958.75;;;4.13;78.70
52105;BME280;38103;42.776;23.112;2023-11-19T12:43:38;93964.25;;;4.25;78.06
52105;BME280;38103;42.776;23.112;2023-11-19T12:46:21;93977.34;;;4.25;77.97
52105;BME280;38103;42.776;23.112;2023-11-19T12:48:48;93971.88;;;4.20;78.44
52105;BME280;38103;42.776;23.112;2023-11-19T12:51:13;93969.72;;;4.30;78.16
52105;BME280;38103;42.776;23.112;2023-11-19T12:53:49;93977.78;;;4.35;78.53
52105;BME280;38103;42.776;23.112;2023-11-19T12:56:15;93972.56;;;4.35;77.56
52105;BME280;38103;42.776;23.112;2023-11-19T12:58:41;93965.69;;;4.41;77.67
52105;BME280;38103;42.776;23.112;2023-11-19T13:01:08;93964.88;;;4.41;77.25
52105;BME280;38103;42.776;23.112;2023-11-19T13:03:37;93970.94;;;4.34;78.83